Time;durP1;ratioP1;P1;durP2;ratioP2;P2;SDS_P1;SDS_P2;PMS_P1;PMS_P2;Temp;Humidity;BMP_temperature;BMP_pressure;BME280_temperature;BME280_humidity;BME280_pressure;Samples;Min_cycle;Max_cycle;Signal;HPM_P1;HPM_P2
2024/03/13 00:00:13;;;;;;;9.40;6.50;;;;;;;3.93;100.00;101339.94;5068334;28;20049;-76
2024/03/13 00:02:42;;;;;;;11.50;7.25;;;;;;;3.86;100.00;101332.69;5066072;28;20063;-76
2024/03/13 00:05:09;;;;;;;12.68;7.00;;;;;;;3.89;100.00;101321.75;5067898;28;20025;-77
2024/03/13 00:07:37;;;;;;;10.63;6.88;;;;;;;3.84;100.00;101321.31;5051315;28;20063;-76
2024/03/13 00:10:03;;;;;;;11.15;6.75;;;;;;;3.89;100.00;101332.38;5069234;28;20028;-76
2024/03/13 00:12:30;;;;;;;10.77;6.22;;;;;;;3.88;100.00;101326.22;5069848;28;20088;-77
2024/03/13 00:14:56;;;;;;;10.23;6.10;;;;;;;3.80;100.00;101319.94;5050860;28;20029;-77
2024/03/13 00:17:22;;;;;;;9.30;5.95;;;;;;;3.77;100.00;101313.06;5067966;28;20044;-76
2024/03/13 00:19:48;;;;;;;11.95;6.32;;;;;;;3.81;100.00;101322.47;5067305;28;20024;-77
2024/03/13 00:22:18;;;;;;;9.70;6.05;;;;;;;3.74;100.00;101311.53;5069739;28;20029;-77
2024/03/13 00:24:46;;;;;;;9.20;6.00;;;;;;;3.87;100.00;101321.88;5051721;28;20029;-76
2024/03/13 00:27:11;;;;;;;10.65;6.28;;;;;;;3.86;100.00;101324.69;5067589;28;20021;-77
2024/03/13 00:29:38;;;;;;;11.25;6.18;;;;;;;3.80;100.00;101309.28;5074091;28;20079;-77
2024/03/13 00:32:07;;;;;;;12.18;5.93;;;;;;;3.83;100.00;101316.97;5067727;28;20029;-77
2024/03/13 00:34:37;;;;;;;9.82;5.60;;;;;;;3.81;100.00;101311.81;5064758;28;20119;-77
2024/03/13 00:37:03;;;;;;;9.30;5.93;;;;;;;3.79;100.00;101318.25;5051155;28;20043;-77
2024/03/13 00:39:30;;;;;;;8.07;5.50;;;;;;;3.72;100.00;101308.19;5049413;28;20044;-77
2024/03/13 00:41:56;;;;;;;8.07;5.47;;;;;;;3.87;100.00;101329.03;5049491;28;20035;-77
2024/03/13 00:44:22;;;;;;;8.85;5.53;;;;;;;3.89;100.00;101330.56;5062562;28;20112;-77
2024/03/13 00:46:48;;;;;;;7.95;5.65;;;;;;;3.90;100.00;101342.03;5041134;28;20028;-76
2024/03/13 00:49:14;;;;;;;7.63;5.07;;;;;;;3.73;100.00;101304.53;5055427;28;20064;-76
2024/03/13 00:51:40;;;;;;;11.75;5.38;;;;;;;3.91;100.00;101333.94;5056069;28;20037;-77
2024/03/13 00:54:06;;;;;;;6.82;5.00;;;;;;;3.91;100.00;101328.59;5057246;28;20033;-77
2024/03/13 00:56:32;;;;;;;9.30;5.20;;;;;;;3.74;100.00;101297.38;5056884;28;20071;-77
2024/03/13 00:58:58;;;;;;;9.27;5.03;;;;;;;3.97;100.00;101325.38;5039171;28;20055;-76
2024/03/13 01:01:24;;;;;;;8.57;5.10;;;;;;;3.96;100.00;101321.00;5039618;28;20062;-77
2024/03/13 01:03:57;;;;;;;7.35;4.97;;;;;;;3.90;100.00;101313.59;5055657;28;20127;-78
2024/03/13 01:06:31;;;;;;;7.22;5.03;;;;;;;3.96;100.00;101322.84;5056856;28;20024;-77
2024/03/13 01:08:57;;;;;;;7.25;5.00;;;;;;;3.94;100.00;101325.66;5055704;28;20036;-77
2024/03/13 01:11:23;;;;;;;10.10;5.28;;;;;;;3.93;100.00;101320.47;5064937;28;20029;-77
2024/03/13 01:13:50;;;;;;;7.15;4.70;;;;;;;3.96;100.00;101329.00;5067783;28;20459;-77
2024/03/13 01:16:16;;;;;;;7.78;4.90;;;;;;;3.84;100.00;101295.56;5066540;28;20017;-77
2024/03/13 01:18:42;;;;;;;9.00;5.38;;;;;;;3.96;100.00;101321.00;5068171;28;20028;-77
2024/03/13 01:21:08;;;;;;;6.45;5.10;;;;;;;3.95;100.00;101313.19;5073207;28;20037;-78
2024/03/13 01:23:33;;;;;;;8.75;5.40;;;;;;;3.91;100.00;101312.63;5050535;28;20048;-77
2024/03/13 01:26:04;;;;;;;7.70;4.90;;;;;;;3.80;100.00;101290.66;5061186;28;20033;-77
2024/03/13 01:28:30;;;;;;;8.48;5.50;;;;;;;3.97;100.00;101311.19;5066077;28;20037;-78
2024/03/13 01:30:55;;;;;;;10.77;6.07;;;;;;;3.96;100.00;101309.53;5045371;28;20078;-77
2024/03/13 01:33:21;;;;;;;11.63;6.65;;;;;;;3.98;100.00;101316.41;5040941;28;20060;-78
2024/03/13 01:35:47;;;;;;;12.30;6.65;;;;;;;3.99;100.00;101309.25;5057485;28;20041;-76
2024/03/13 01:38:13;;;;;;;14.18;6.47;;;;;;;3.97;100.00;101312.06;5064216;28;20037;-77
2024/03/13 01:57:29;;;;;;;21.60;8.73;;;;;;;3.88;100.00;101290.78;5067747;28;20040;-77
2024/03/13 02:02:45;;;;;;;23.83;9.38;;;;;;;3.72;100.00;101270.06;5068330;28;20033;-78
2024/03/13 02:05:12;;;;;;;29.60;11.68;;;;;;;3.91;100.00;101299.31;5050143;28;20025;-78
2024/03/13 02:07:37;;;;;;;25.17;10.23;;;;;;;3.83;100.00;101279.72;5049873;28;20271;-77
2024/03/13 02:10:04;;;;;;;27.98;11.25;;;;;;;3.73;100.00;101261.09;5065564;28;20056;-78
2024/03/13 02:12:29;;;;;;;31.58;11.65;;;;;;;3.92;100.00;101281.53;5064439;28;20453;-78
2024/03/13 02:14:55;;;;;;;31.20;12.55;;;;;;;3.91;100.00;101290.50;5064465;28;20064;-79
2024/03/13 02:17:21;;;;;;;36.53;12.65;;;;;;;3.40;100.00;101214.53;5066158;28;20040;-78
2024/03/13 02:19:47;;;;;;;43.90;13.30;;;;;;;3.89;100.00;101297.78;5064864;28;20021;-78
2024/03/13 02:22:14;;;;;;;39.47;13.55;;;;;;;3.90;100.00;101288.81;5030930;28;20514;-78
2024/03/13 02:24:39;;;;;;;39.80;13.45;;;;;;;3.76;100.00;101274.97;5064462;28;20057;-78
2024/03/13 02:27:11;;;;;;;42.17;14.48;;;;;;;3.90;100.00;101283.47;5065465;28;20068;-78
2024/03/13 02:29:46;;;;;;;43.50;14.20;;;;;;;3.89;100.00;101293.28;5063894;28;20125;-77
2024/03/13 02:32:11;;;;;;;54.88;15.90;;;;;;;3.79;100.00;101273.00;5063820;28;20513;-78
2024/03/13 02:34:41;;;;;;;52.10;16.52;;;;;;;3.86;100.00;101280.25;5064274;28;20051;-78
2024/03/13 02:37:06;;;;;;;60.20;17.48;;;;;;;3.86;100.00;101282.94;5064526;28;20025;-78
2024/03/13 02:39:34;;;;;;;64.15;18.95;;;;;;;3.84;100.00;101276.06;5064127;28;20093;-78
2024/03/13 02:41:59;;;;;;;64.05;18.50;;;;;;;3.87;100.00;101283.75;5047741;28;20033;-78
2024/03/13 02:44:25;;;;;;;56.25;19.58;;;;;;;3.87;100.00;101281.94;5064489;28;20043;-78
2024/03/13 02:46:50;;;;;;;59.05;20.42;;;;;;;3.67;100.00;101254.53;5064920;28;20037;-78
2024/03/13 02:49:15;;;;;;;65.68;19.88;;;;;;;3.88;100.00;101280.97;5032213;28;20029;-77
2024/03/13 02:51:42;;;;;;;59.33;21.13;;;;;;;3.87;100.00;101286.44;5061726;28;20079;-77
2024/03/13 02:54:08;;;;;;;59.72;20.95;;;;;;;3.67;100.00;101259.84;5059646;28;20033;-78
2024/03/13 02:56:34;;;;;;;62.45;20.30;;;;;;;3.72;100.00;101265.59;5060085;28;20053;-78
2024/03/13 02:58:59;;;;;;;64.93;21.52;;;;;;;3.84;100.00;101284.91;5058227;28;20052;-77
2024/03/13 03:01:26;;;;;;;64.85;21.77;;;;;;;3.84;100.00;101274.25;5058151;28;20063;-77
2024/03/13 03:03:51;;;;;;;69.57;22.48;;;;;;;3.85;100.00;101272.44;5042069;28;20123;-78
2024/03/13 03:06:18;;;;;;;76.57;24.30;;;;;;;3.84;100.00;101271.59;5058293;28;20056;-77
2024/03/13 03:08:44;;;;;;;65.60;23.38;;;;;;;3.61;100.00;101220.53;5059655;28;20497;-78
2024/03/13 03:11:10;;;;;;;72.90;23.83;;;;;;;3.85;100.00;101267.94;5060864;28;20041;-77
2024/03/13 03:13:38;;;;;;;74.82;24.10;;;;;;;3.86;100.00;101256.31;5047785;28;20040;-77
2024/03/13 03:16:05;;;;;;;81.93;24.25;;;;;;;3.82;100.00;101249.59;5067314;28;20549;-78
2024/03/13 03:18:31;;;;;;;82.90;25.40;;;;;;;3.84;100.00;101252.09;5067217;28;20116;-78
2024/03/13 03:20:58;;;;;;;86.70;25.13;;;;;;;3.71;100.00;101231.97;5066480;28;20036;-77
2024/03/13 03:23:23;;;;;;;79.18;24.88;;;;;;;3.86;100.00;101256.31;5067241;28;20162;-78
2024/03/13 03:25:50;;;;;;;71.55;24.73;;;;;;;3.85;100.00;101251.13;5050393;28;20100;-77
2024/03/13 03:28:16;;;;;;;83.03;25.20;;;;;;;3.84;100.00;101254.75;5066591;28;20029;-77
2024/03/13 03:30:42;;;;;;;88.25;25.60;;;;;;;3.84;100.00;101252.09;5050437;28;20040;-77
2024/03/13 03:33:08;;;;;;;82.28;25.42;;;;;;;3.84;100.00;101252.97;5066179;28;20115;-77
2024/03/13 03:35:34;;;;;;;78.63;25.77;;;;;;;3.84;100.00;101252.09;5066564;28;20281;-77
2024/03/13 03:38:04;;;;;;;88.18;25.60;;;;;;;3.85;100.00;101248.47;5066634;28;20098;-77
2024/03/13 03:40:30;;;;;;;86.93;25.27;;;;;;;3.85;100.00;101251.13;5066812;28;20059;-78
2024/03/13 03:42:58;;;;;;;82.93;25.92;;;;;;;3.85;100.00;101246.66;5067868;28;20030;-77
2024/03/13 03:45:25;;;;;;;78.78;27.02;;;;;;;3.86;100.00;101244.81;5067192;28;20039;-77
2024/03/13 03:47:51;;;;;;;87.18;27.13;;;;;;;3.81;100.00;101239.06;5065117;28;20021;-78
2024/03/13 03:50:17;;;;;;;83.93;27.38;;;;;;;3.66;100.00;101212.09;5062966;28;20051;-77
2024/03/13 03:52:43;;;;;;;85.13;26.88;;;;;;;3.86;100.00;101242.16;5062611;28;20084;-77
2024/03/13 03:55:09;;;;;;;82.88;26.25;;;;;;;3.69;100.00;101209.16;5065318;28;20045;-77
2024/03/13 03:57:35;;;;;;;85.30;27.17;;;;;;;3.86;100.00;101234.19;5066706;28;20029;-77
2024/03/13 04:00:00;;;;;;;69.60;24.42;;;;;;;3.88;100.00;101240.22;5066978;28;20069;-78
2024/03/13 04:02:27;;;;;;;84.13;28.20;;;;;;;3.84;100.00;101230.81;5066011;28;20040;-78
2024/03/13 04:04:53;;;;;;;100.82;27.10;;;;;;;3.87;100.00;101242.00;5049905;28;20048;-77
2024/03/13 04:07:18;;;;;;;91.80;28.20;;;;;;;3.69;100.00;101212.66;5066242;28;20021;-77
2024/03/13 04:09:44;;;;;;;103.10;27.60;;;;;;;3.76;100.00;101224.38;5066149;28;20059;-77
2024/03/13 04:12:09;;;;;;;91.53;28.13;;;;;;;3.86;100.00;101234.19;5066291;28;20029;-78
2024/03/13 04:14:35;;;;;;;97.88;28.98;;;;;;;3.85;100.00;101232.50;5065726;28;20036;-77
2024/03/13 04:17:00;;;;;;;109.72;30.02;;;;;;;3.65;100.00;101211.25;5064907;28;20031;-77
2024/03/13 04:19:27;;;;;;;108.38;30.30;;;;;;;3.82;100.00;101227.47;5065835;28;20036;-77
2024/03/13 04:21:53;;;;;;;112.40;31.02;;;;;;;3.87;100.00;101236.69;5065517;28;20097;-77
2024/03/13 04:24:19;;;;;;;106.00;30.52;;;;;;;3.86;100.00;101228.84;5067408;28;20102;-77
2024/03/13 04:26:45;;;;;;;109.50;29.88;;;;;;;3.71;100.00;101213.34;5067547;28;20096;-76
2024/03/13 04:29:11;;;;;;;101.30;30.02;;;;;;;3.83;100.00;101219.31;5033699;28;20063;-78
2024/03/13 04:31:39;;;;;;;115.20;31.52;;;;;;;3.87;100.00;101225.19;5063864;28;20021;-77
2024/03/13 04:34:06;;;;;;;117.80;31.83;;;;;;;3.78;100.00;101205.63;5043076;28;20056;-78
2024/03/13 04:36:35;;;;;;;124.88;31.90;;;;;;;3.79;100.00;101209.13;5040437;28;20025;-77
2024/03/13 04:39:01;;;;;;;126.57;31.15;;;;;;;3.84;100.00;101228.16;5039947;28;20036;-77
2024/03/13 04:41:26;;;;;;;109.03;30.27;;;;;;;3.86;100.00;101237.66;5040636;28;20033;-78
2024/03/13 04:43:53;;;;;;;133.88;32.58;;;;;;;3.88;100.00;101235.72;5056928;28;20037;-77
2024/03/13 04:46:18;;;;;;;138.73;32.60;;;;;;;3.87;100.00;101246.50;5057841;28;20066;-78
2024/03/13 04:48:45;;;;;;;141.45;32.05;;;;;;;3.63;100.00;101204.41;5058961;28;20119;-77
2024/03/13 04:51:14;;;;;;;140.25;32.25;;;;;;;3.72;100.00;101215.03;5056922;28;20343;-77
2024/03/13 04:53:39;;;;;;;137.23;32.10;;;;;;;3.87;100.00;101242.00;5040485;28;20032;-76
2024/03/13 04:56:06;;;;;;;137.07;32.75;;;;;;;3.79;100.00;101217.13;5058361;28;20021;-76
2024/03/13 04:58:33;;;;;;;144.73;33.40;;;;;;;3.74;100.00;101209.53;5057146;28;20108;-74
2024/03/13 05:00:59;;;;;;;138.73;33.55;;;;;;;3.88;100.00;101229.56;5056421;28;20144;-78
2024/03/13 05:03:24;;;;;;;153.73;35.50;;;;;;;3.89;100.00;101237.38;5057199;28;20136;-76
2024/03/13 05:05:50;;;;;;;146.50;35.53;;;;;;;3.81;100.00;101216.00;5056601;28;20128;-76
2024/03/13 05:08:16;;;;;;;151.15;35.03;;;;;;;3.73;100.00;101203.38;5057564;28;20032;-76
2024/03/13 05:10:45;;;;;;;136.80;35.00;;;;;;;3.89;100.00;101228.56;5057908;28;20057;-78
2024/03/13 05:13:10;;;;;;;138.65;35.75;;;;;;;3.84;100.00;101220.16;5059538;28;20036;-76
2024/03/13 05:15:35;;;;;;;153.38;37.50;;;;;;;3.89;100.00;101217.91;5027864;28;20041;-79
2024/03/13 05:18:01;;;;;;;150.40;36.42;;;;;;;3.90;100.00;101211.59;5060610;28;20402;-75
2024/03/13 05:20:28;;;;;;;140.68;35.83;;;;;;;3.79;100.00;101193.16;5043335;28;20044;-77
2024/03/13 05:22:54;;;;;;;142.18;37.47;;;;;;;3.90;100.00;101216.91;5044019;28;20056;-78
2024/03/13 05:25:22;;;;;;;131.23;34.97;;;;;;;3.75;100.00;101180.13;5062024;28;20032;-77
2024/03/13 05:27:50;;;;;;;150.50;37.65;;;;;;;3.84;100.00;101204.19;5057243;28;20028;-75
2024/03/13 05:30:16;;;;;;;143.20;37.45;;;;;;;3.87;100.00;101204.72;5043819;28;20044;-76
2024/03/13 05:32:43;;;;;;;160.38;38.70;;;;;;;3.87;100.00;101210.06;5065793;28;20032;-74
2024/03/13 05:35:08;;;;;;;159.90;39.75;;;;;;;3.83;100.00;101207.84;5039147;28;20017;-77
2024/03/13 05:37:34;;;;;;;153.75;39.28;;;;;;;3.90;100.00;101214.25;5074268;28;20044;-76
2024/03/13 05:40:01;;;;;;;151.35;39.67;;;;;;;3.89;100.00;101218.75;5075337;28;20099;-77
2024/03/13 05:42:28;;;;;;;159.70;40.83;;;;;;;3.89;100.00;101217.91;5076085;28;20060;-78
2024/03/13 05:44:54;;;;;;;160.55;41.38;;;;;;;3.90;100.00;101215.09;5060775;28;20068;-76
2024/03/13 05:47:20;;;;;;;159.05;39.78;;;;;;;3.91;100.00;101230.09;5071882;28;20034;-76
2024/03/13 05:49:45;;;;;;;164.15;41.17;;;;;;;3.92;100.00;101222.94;5049373;28;20048;-80
2024/03/13 05:52:11;;;;;;;160.52;41.80;;;;;;;3.87;100.00;101219.88;5069556;28;20017;-78
2024/03/13 05:54:37;;;;;;;187.55;44.58;;;;;;;3.90;100.00;101230.22;5052010;28;20104;-78
2024/03/13 05:57:03;;;;;;;178.88;44.22;;;;;;;3.91;100.00;101240.75;5067728;28;20025;-79
2024/03/13 05:59:28;;;;;;;165.68;42.72;;;;;;;3.93;100.00;101232.59;5069952;28;20130;-77
2024/03/13 06:01:55;;;;;;;177.88;43.28;;;;;;;3.94;100.00;101220.97;5065725;28;20025;-76
2024/03/13 06:04:21;;;;;;;183.63;44.28;;;;;;;3.91;100.00;101216.78;5066432;28;20055;-76
2024/03/13 06:06:48;;;;;;;183.77;42.72;;;;;;;3.95;100.00;101218.16;5031391;28;20021;-76
2024/03/13 06:09:15;;;;;;;170.00;43.58;;;;;;;3.98;100.00;101211.72;5064262;28;20314;-77
2024/03/13 06:11:41;;;;;;;176.32;44.70;;;;;;;3.98;100.00;101220.53;5065310;28;20024;-78
2024/03/13 06:14:08;;;;;;;164.20;42.22;;;;;;;3.95;100.00;101220.84;5055942;28;20025;-78
2024/03/13 06:16:33;;;;;;;182.60;43.47;;;;;;;3.85;100.00;101197.91;5073222;28;20027;-78
2024/03/13 06:18:58;;;;;;;179.50;42.97;;;;;;;3.98;100.00;101220.53;5074316;28;20053;-78
2024/03/13 06:21:24;;;;;;;176.63;44.33;;;;;;;3.89;100.00;101189.47;5074072;28;20043;-77
2024/03/13 06:23:52;;;;;;;174.90;42.80;;;;;;;3.32;100.00;101090.25;5074965;28;20063;-78
2024/03/13 06:26:20;;;;;;;168.15;41.78;;;;;;;4.01;100.00;101200.78;5073723;28;20032;-78
2024/03/13 06:31:30;;;;;;;172.65;40.95;;;;;;;4.00;100.00;101201.75;5059533;28;20036;-78
2024/03/13 06:33:55;;;;;;;169.70;43.90;;;;;;;3.96;100.00;101192.38;5055826;28;20033;-78
2024/03/13 06:36:21;;;;;;;157.13;43.05;;;;;;;4.02;100.00;101204.28;5087573;28;20037;-78
2024/03/13 06:38:47;;;;;;;156.68;41.25;;;;;;;4.04;100.00;101212.94;5071055;28;20047;-78
2024/03/13 06:41:14;;;;;;;148.70;41.67;;;;;;;4.05;100.00;101207.47;5072039;28;20035;-78
2024/03/13 06:43:40;;;;;;;151.93;41.35;;;;;;;4.06;100.00;101200.31;5070295;28;20470;-79
2024/03/13 06:46:06;;;;;;;143.10;41.08;;;;;;;4.05;100.00;101202.16;5070276;28;20033;-78
2024/03/13 06:48:32;;;;;;;145.98;40.88;;;;;;;3.65;100.00;101128.78;5074731;28;20040;-76
2024/03/13 06:50:58;;;;;;;135.27;38.22;;;;;;;4.00;100.00;101189.25;5049693;28;20036;-76
2024/03/13 06:53:24;;;;;;;128.27;38.25;;;;;;;4.11;100.00;101203.41;5066554;28;20033;-77
2024/03/13 06:55:49;;;;;;;128.48;38.35;;;;;;;4.03;100.00;101196.13;5066862;28;20127;-76
2024/03/13 06:58:15;;;;;;;140.73;39.75;;;;;;;4.02;100.00;101186.47;5066400;28;20028;-76
2024/03/13 07:00:40;;;;;;;122.43;37.58;;;;;;;4.10;100.00;101196.38;5066000;28;20053;-76
2024/03/13 07:03:07;;;;;;;129.27;39.15;;;;;;;3.98;100.00;101163.78;5048168;28;20056;-75
2024/03/13 07:05:32;;;;;;;124.93;38.33;;;;;;;4.15;100.00;101189.63;5064174;28;20406;-76
2024/03/13 07:07:58;;;;;;;126.90;37.42;;;;;;;4.16;100.00;101196.63;5063627;28;20033;-76
2024/03/13 07:10:24;;;;;;;116.63;35.25;;;;;;;4.18;100.00;101200.00;5064000;28;20025;-75
2024/03/13 07:12:49;;;;;;;117.28;35.20;;;;;;;4.20;100.00;101195.34;5063304;28;20316;-76
2024/03/13 07:15:15;;;;;;;113.45;35.85;;;;;;;4.20;100.00;101205.16;5063145;28;20036;-76
2024/03/13 07:17:42;;;;;;;108.35;35.22;;;;;;;4.20;100.00;101203.31;5064156;28;20021;-76
2024/03/13 07:20:11;;;;;;;99.00;32.63;;;;;;;4.22;100.00;101197.88;5048097;28;20514;-77
2024/03/13 07:22:40;;;;;;;113.90;33.83;;;;;;;4.19;100.00;101199.00;5064649;28;20025;-76
2024/03/13 07:25:07;;;;;;;104.32;34.40;;;;;;;4.22;100.00;101206.69;5048436;28;20084;-76
2024/03/13 07:27:32;;;;;;;106.75;32.67;;;;;;;4.22;100.00;101208.53;5063974;28;20433;-76
2024/03/13 07:29:59;;;;;;;102.50;33.80;;;;;;;4.19;100.00;101199.00;5065033;28;20037;-76
2024/03/13 07:32:25;;;;;;;99.63;32.88;;;;;;;4.26;100.00;101209.91;5061432;28;20029;-76
2024/03/13 07:34:50;;;;;;;97.38;32.97;;;;;;;4.26;100.00;101215.22;5062121;28;20032;-76
2024/03/13 07:37:15;;;;;;;105.97;33.63;;;;;;;4.28;100.00;101207.09;5047169;28;20037;-76
2024/03/13 07:39:41;;;;;;;100.65;32.85;;;;;;;4.27;100.00;101208.91;5047937;28;20029;-76
2024/03/13 07:42:07;;;;;;;99.82;33.17;;;;;;;4.30;100.00;101205.13;5065345;28;20033;-77
2024/03/13 07:44:33;;;;;;;111.90;33.33;;;;;;;4.28;100.00;101213.25;5048176;28;20035;-76
2024/03/13 07:46:58;;;;;;;96.68;31.77;;;;;;;4.31;100.00;101209.47;5064480;28;20033;-76
2024/03/13 07:49:25;;;;;;;100.28;33.38;;;;;;;4.31;100.00;101201.47;5066705;28;20028;-77
2024/03/13 07:51:54;;;;;;;101.75;33.72;;;;;;;4.32;100.00;101206.66;5048552;28;20100;-76
2024/03/13 07:54:21;;;;;;;106.32;33.50;;;;;;;4.29;100.00;101204.28;5068291;28;20028;-76
2024/03/13 07:56:47;;;;;;;103.90;33.97;;;;;;;4.34;100.00;101212.69;5072501;28;20040;-76
2024/03/13 07:59:12;;;;;;;104.45;33.22;;;;;;;4.38;100.00;101211.38;5073706;28;20526;-76
2024/03/13 08:01:41;;;;;;;102.43;34.85;;;;;;;4.29;100.00;101200.78;5071310;28;20024;-76
2024/03/13 08:04:08;;;;;;;111.35;33.42;;;;;;;4.39;100.00;101209.56;5054976;28;20005;-75
2024/03/13 08:06:36;;;;;;;116.28;35.03;;;;;;;4.40;100.00;101216.56;5054177;28;20029;-76
2024/03/13 08:09:01;;;;;;;116.20;34.83;;;;;;;4.41;100.00;101216.41;5070841;28;20020;-77
2024/03/13 08:11:30;;;;;;;124.07;34.65;;;;;;;4.31;100.00;101196.16;5072417;28;20028;-76
2024/03/13 08:13:56;;;;;;;132.68;36.47;;;;;;;4.42;100.00;101226.09;5070928;28;20033;-76
2024/03/13 08:16:22;;;;;;;130.95;35.75;;;;;;;4.38;100.00;101207.88;5066441;28;20037;-76
2024/03/13 08:18:48;;;;;;;127.90;36.75;;;;;;;4.43;100.00;101217.09;5048749;28;20024;-76
2024/03/13 08:21:13;;;;;;;125.13;36.83;;;;;;;4.44;100.00;101217.97;5066411;28;20033;-76
2024/03/13 08:23:39;;;;;;;135.80;39.00;;;;;;;4.44;100.00;101216.13;5047344;28;20032;-76
2024/03/13 08:26:04;;;;;;;133.50;37.38;;;;;;;4.44;100.00;101217.97;5065142;28;20029;-76
2024/03/13 08:28:29;;;;;;;139.27;37.13;;;;;;;4.44;100.00;101231.28;5030882;28;20088;-77
2024/03/13 08:30:56;;;;;;;147.70;36.67;;;;;;;4.23;100.00;101194.22;5064321;28;20029;-76
2024/03/13 08:33:21;;;;;;;161.52;37.40;;;;;;;4.35;100.00;101221.50;5063864;28;20025;-76
2024/03/13 08:35:47;;;;;;;162.10;37.45;;;;;;;4.37;100.00;101230.16;5064614;28;20035;-76
2024/03/13 08:38:13;;;;;;;167.95;38.17;;;;;;;4.22;100.00;101203.19;5047500;28;20029;-76
2024/03/13 08:40:39;;;;;;;168.88;36.38;;;;;;;4.36;100.00;101223.16;5063752;28;20046;-76
2024/03/13 08:43:04;;;;;;;194.38;38.25;;;;;;;4.26;100.00;101217.88;5047857;28;20087;-77
2024/03/13 08:45:29;;;;;;;201.32;38.95;;;;;;;4.32;100.00;101216.47;5062033;28;20043;-76
2024/03/13 08:47:55;;;;;;;179.88;38.22;;;;;;;4.34;100.00;101219.81;5060501;28;20545;-76
2024/03/13 08:50:21;;;;;;;210.60;36.97;;;;;;;4.38;100.00;101224.72;5059849;28;20020;-76
2024/03/13 08:52:46;;;;;;;213.68;39.20;;;;;;;4.37;100.00;101222.19;5046836;28;20029;-76
2024/03/13 08:55:13;;;;;;;212.15;37.53;;;;;;;4.19;100.00;101203.50;5030109;28;20053;-76
2024/03/13 08:57:38;;;;;;;214.27;36.25;;;;;;;4.37;100.00;101235.50;5064947;28;20025;-76
2024/03/13 09:00:05;;;;;;;199.57;36.40;;;;;;;4.35;100.00;101234.81;5063231;28;20067;-76
2024/03/13 09:02:32;;;;;;;179.30;36.35;;;;;;;4.26;100.00;101215.22;5063269;28;20079;-76
2024/03/13 09:04:57;;;;;;;175.88;34.92;;;;;;;4.39;100.00;101242.34;5063093;28;20043;-76
2024/03/13 09:07:23;;;;;;;180.55;35.38;;;;;;;4.35;100.00;101241.00;5064023;28;20029;-76
2024/03/13 09:09:48;;;;;;;190.30;35.65;;;;;;;4.37;100.00;101235.50;5047063;28;20035;-76
2024/03/13 09:12:15;;;;;;;207.20;35.63;;;;;;;4.39;100.00;101242.34;5064042;28;20036;-76
2024/03/13 09:14:40;;;;;;;193.60;35.25;;;;;;;4.37;100.00;101247.03;5063039;28;20053;-76
2024/03/13 09:17:06;;;;;;;168.68;34.30;;;;;;;4.33;100.00;101231.47;5063210;28;20025;-76
2024/03/13 09:19:37;;;;;;;175.57;35.15;;;;;;;4.38;100.00;101245.19;5062413;28;20036;-76
2024/03/13 09:22:07;;;;;;;163.73;34.28;;;;;;;4.39;100.00;101241.53;5047222;28;20041;-76
2024/03/13 09:24:36;;;;;;;173.85;35.20;;;;;;;4.39;100.00;101237.03;5063995;28;20475;-76
2024/03/13 09:27:02;;;;;;;163.32;34.90;;;;;;;4.38;100.00;101239.84;5065354;28;20488;-76
2024/03/13 09:29:27;;;;;;;175.43;35.33;;;;;;;4.37;100.00;101238.16;5064200;28;20136;-76
2024/03/13 09:31:53;;;;;;;175.43;38.40;;;;;;;4.37;100.00;101236.38;5064594;28;20047;-76
2024/03/13 09:34:18;;;;;;;172.48;37.58;;;;;;;4.38;100.00;101234.53;5064318;28;20030;-76
2024/03/13 09:36:43;;;;;;;164.55;36.67;;;;;;;4.36;100.00;101225.84;5064294;28;20025;-76
2024/03/13 09:39:11;;;;;;;163.90;37.28;;;;;;;4.37;100.00;101228.38;5064476;28;20506;-76
2024/03/13 09:41:37;;;;;;;148.48;37.30;;;;;;;4.39;100.00;101237.03;5047541;28;20063;-76
2024/03/13 09:44:02;;;;;;;164.55;39.00;;;;;;;4.26;100.00;101209.06;5046760;28;20021;-76
2024/03/13 09:46:29;;;;;;;148.52;37.47;;;;;;;4.32;100.00;101214.63;5062841;28;20499;-76
2024/03/13 09:48:57;;;;;;;164.18;41.17;;;;;;;4.44;100.00;101221.44;5064935;28;20075;-76
2024/03/13 09:51:23;;;;;;;162.63;39.72;;;;;;;4.45;100.00;101217.78;5064354;28;20029;-76
2024/03/13 09:53:52;;;;;;;158.35;39.60;;;;;;;4.41;100.00;101215.59;5064378;28;20025;-76
2024/03/13 09:56:19;;;;;;;143.57;38.38;;;;;;;4.47;100.00;101218.50;5063615;28;20024;-76
2024/03/13 09:58:46;;;;;;;143.13;38.33;;;;;;;4.48;100.00;101227.31;5065166;28;20029;-76
2024/03/13 10:01:31;;;;;;;154.93;39.08;;;;;;;4.52;100.00;101231.34;5061168;28;20049;-75
2024/03/13 10:04:02;;;;;;;136.10;37.08;;;;;;;4.53;100.00;101229.53;5062294;28;20043;-74
2024/03/13 10:06:34;;;;;;;132.73;38.22;;;;;;;4.38;100.00;101191.91;5062667;28;20048;-76
2024/03/13 10:09:03;;;;;;;131.32;37.47;;;;;;;4.54;100.00;101218.72;5064694;28;20021;-76
2024/03/13 10:11:30;;;;;;;138.65;39.38;;;;;;;4.58;100.00;101209.44;5049493;28;20144;-75
2024/03/13 10:13:56;;;;;;;132.85;36.90;;;;;;;4.59;100.00;101220.94;5071429;28;20072;-76
2024/03/13 10:16:25;;;;;;;135.10;38.15;;;;;;;4.63;100.00;101203.66;5040213;28;20040;-76
2024/03/13 10:18:53;;;;;;;125.35;38.65;;;;;;;4.58;100.00;101198.78;5074562;28;20038;-76
2024/03/13 10:21:27;;;;;;;132.20;38.08;;;;;;;4.56;100.00;101182.09;5073315;28;20027;-76
2024/03/13 10:23:55;;;;;;;130.27;37.35;;;;;;;4.42;100.00;101162.13;5073301;28;20099;-75
2024/03/13 10:26:21;;;;;;;123.78;36.97;;;;;;;4.72;100.00;101197.41;5073183;28;20033;-76
2024/03/13 10:28:50;;;;;;;121.50;37.42;;;;;;;4.78;100.00;101206.66;5055503;28;20032;-76
2024/03/13 10:31:17;;;;;;;127.03;38.95;;;;;;;4.86;100.00;101196.06;5072534;28;20823;-75
2024/03/13 10:33:43;;;;;;;114.75;37.67;;;;;;;4.85;100.00;101200.56;5071244;28;20449;-74
2024/03/13 10:36:08;;;;;;;125.57;38.85;;;;;;;4.85;100.00;101197.88;5073367;28;20012;-73
2024/03/13 10:38:35;;;;;;;121.90;38.33;;;;;;;4.87;100.00;101201.25;5064812;28;20027;-74
2024/03/13 10:41:04;;;;;;;120.85;38.95;;;;;;;4.90;100.00;101203.63;5050118;28;20033;-73
2024/03/13 10:43:33;;;;;;;125.90;38.95;;;;;;;4.86;100.00;101196.06;5067382;28;20047;-74
2024/03/13 10:45:58;;;;;;;125.32;39.63;;;;;;;4.90;100.00;101206.28;5047828;28;20074;-75
2024/03/13 10:48:24;;;;;;;120.90;38.33;;;;;;;4.92;100.00;101206.13;5057808;28;20021;-74
2024/03/13 10:50:50;;;;;;;128.27;40.08;;;;;;;4.92;100.00;101214.13;5057402;28;20106;-74
2024/03/13 10:53:16;;;;;;;114.03;38.70;;;;;;;4.90;100.00;101210.75;5059044;28;20039;-75
2024/03/13 10:55:42;;;;;;;122.30;38.72;;;;;;;4.93;100.00;101219.31;5058983;28;20387;-75
2024/03/13 10:58:22;;;;;;;126.28;39.83;;;;;;;4.73;100.00;101183.09;5057872;28;20077;-75
2024/03/13 11:00:48;;;;;;;122.15;39.05;;;;;;;4.92;100.00;101214.13;5057801;28;20075;-74
2024/03/13 11:03:14;;;;;;;114.60;37.70;;;;;;;4.86;100.00;101207.53;5068451;28;20089;-75
2024/03/13 11:05:40;;;;;;;122.07;38.65;;;;;;;4.74;100.00;101182.13;5068282;28;20029;-73
2024/03/13 11:08:09;;;;;;;120.95;38.30;;;;;;;4.91;100.00;101220.44;5060480;28;20040;-73
2024/03/13 11:10:36;;;;;;;129.55;38.80;;;;;;;4.92;100.00;101219.44;5042542;28;20033;-75
2024/03/13 11:13:05;;;;;;;121.85;37.47;;;;;;;4.94;100.00;101215.66;5027658;28;20415;-76
2024/03/13 11:15:34;;;;;;;132.43;38.83;;;;;;;4.97;100.00;101213.66;5059925;28;20033;-76
2024/03/13 11:18:04;;;;;;;116.97;38.72;;;;;;;5.00;100.00;101216.00;5059724;28;20029;-75
2024/03/13 11:20:41;;;;;;;123.00;37.13;;;;;;;4.97;100.00;101211.84;5059285;28;20431;-71
2024/03/13 11:23:14;;;;;;;111.65;36.72;;;;;;;5.06;100.00;101218.06;5056965;28;20483;-72
2024/03/13 11:25:41;;;;;;;117.13;38.63;;;;;;;5.05;100.00;101219.91;5058286;28;20029;-72